Pretty Hana — DSQJ5 — position and weather

sailwx.info

Track history (hours):
 
Tides and Currents Weather Stations Pressure Air Temp Water Temp Dewpoint Dewpoint Depression Visibility Wind Speed Wind Dir Waves Ship Positions

Pretty Hana

Last reported at 2016-Jun-19 09:33 UTC. Time now 2016-Jun-27 04:15 UTC.
Position N 31°23' E 121°35'.

Length 64 m; draft 4.5 m.

Type: Ship (hazmat cat B). MMSI: 441600000.

Date/timePositionNaut miles runAvg speedWind from/ knotsBaromVisibWave heightAir tempDewpointWater temp
2016-Jun-19 09:33N 31°23' E 121°35'8 8.2
2016-Jun-19 08:33N 31°28' E 121°27'1211.6
2016-Jun-19 07:29N 31°37' E 121°16'2211.0
2016-Jun-19 05:31N 31°48' E 120°55'1310.7
2016-Jun-19 04:21N 31°60' E 120°49'2212.4
2016-Jun-19 02:33N 32°00' E 120°23'1413.0
2016-Jun-19 01:28N 31°57' E 120°07'4 0.2
2016-Jun-18 07:07N 31°57' E 120°03'6 8.2
2016-Jun-18 06:24N 31°56' E 120°09'10 9.6
2016-Jun-18 05:22N 31°59' E 120°21'8 9.2
2016-Jun-18 04:28N 32°04' E 120°28'8 8.5
2016-Jun-18 03:33N 32°01' E 120°36'9 8.7
2016-Jun-18 02:33N 32°01' E 120°47'9 8.4
2016-Jun-18 01:30N 31°54' E 120°53'10 8.1
2016-Jun-18 00:18N 31°47' E 121°01'8 8.7
2016-Jun-17 23:26N 31°43' E 121°08'8 8.6
2016-Jun-17 22:33N 31°38' E 121°15'6 5.7
2016-Jun-17 21:32N 31°34' E 121°20'0 0.0
2016-Jun-17 20:32N 31°34' E 121°20'0 0.0
2016-Jun-17 19:32N 31°34' E 121°20'0 0.1
2016-Jun-17 18:32N 31°34' E 121°20'0 0.0
2016-Jun-17 17:32N 31°34' E 121°20'0 0.1
2016-Jun-17 16:32N 31°34' E 121°20'0 0.0
2016-Jun-17 15:32N 31°34' E 121°20'0 0.0
2016-Jun-17 14:26N 31°34' E 121°20'0 0.0
2016-Jun-17 13:32N 31°34' E 121°20'5 4.9
2016-Jun-17 12:33N 31°31' E 121°24'10 9.7
2016-Jun-17 11:32N 31°24' E 121°33'2311.0
2016-Jun-17 09:28N 31°09' E 121°53'10 0.2
2016-Jun-15 09:20N 31°17' E 121°45'911.3
2016-Jun-15 08:33N 31°22' E 121°36'10 9.7
2016-Jun-15 07:33N 31°28' E 121°27'10 9.7
2016-Jun-15 06:33N 31°34' E 121°19'26 1.2
2016-Jun-14 09:26N 31°51' E 120°56'12 0.6
2016-Jun-13 11:10N 31°44' E 121°07'610.6
2016-Jun-13 10:33N 31°40' E 121°13'1010.3
2016-Jun-13 09:33N 31°32' E 121°21'1110.5
2016-Jun-13 08:32N 31°25' E 121°31'1010.4
2016-Jun-13 07:33N 31°20' E 121°41'1410.0
2016-Jun-13 06:07N 31°09' E 121°53'  
Track history (hours):
 
Tides and Currents Weather Stations Pressure Air Temp Water Temp Dewpoint Dewpoint Depression Visibility Wind Speed Wind Dir Waves Ship Positions

Pretty Hana

Last reported at 2016-Jun-19 09:33 UTC. Time now 2016-Jun-27 04:15 UTC.
Position N 31°23' E 121°35'.

Length 64 m; draft 4.5 m.

Type: Ship (hazmat cat B). MMSI: 441600000.

Date/timePositionNaut miles runAvg speedWind from/ knotsBaromVisibWave heightAir tempDewpointWater temp
2016-Jun-19 09:33N 31°23' E 121°35'8 8.2
2016-Jun-19 08:33N 31°28' E 121°27'1211.6
2016-Jun-19 07:29N 31°37' E 121°16'2211.0
2016-Jun-19 05:31N 31°48' E 120°55'1310.7
2016-Jun-19 04:21N 31°60' E 120°49'2212.4
2016-Jun-19 02:33N 32°00' E 120°23'1413.0
2016-Jun-19 01:28N 31°57' E 120°07'4 0.2
2016-Jun-18 07:07N 31°57' E 120°03'6 8.2
2016-Jun-18 06:24N 31°56' E 120°09'10 9.6
2016-Jun-18 05:22N 31°59' E 120°21'8 9.2
2016-Jun-18 04:28N 32°04' E 120°28'8 8.5
2016-Jun-18 03:33N 32°01' E 120°36'9 8.7
2016-Jun-18 02:33N 32°01' E 120°47'9 8.4
2016-Jun-18 01:30N 31°54' E 120°53'10 8.1
2016-Jun-18 00:18N 31°47' E 121°01'8 8.7
2016-Jun-17 23:26N 31°43' E 121°08'8 8.6
2016-Jun-17 22:33N 31°38' E 121°15'6 5.7
2016-Jun-17 21:32N 31°34' E 121°20'0 0.0
2016-Jun-17 20:32N 31°34' E 121°20'0 0.0
2016-Jun-17 19:32N 31°34' E 121°20'0 0.1
2016-Jun-17 18:32N 31°34' E 121°20'0 0.0
2016-Jun-17 17:32N 31°34' E 121°20'0 0.1
2016-Jun-17 16:32N 31°34' E 121°20'0 0.0
2016-Jun-17 15:32N 31°34' E 121°20'0 0.0
2016-Jun-17 14:26N 31°34' E 121°20'0 0.0
2016-Jun-17 13:32N 31°34' E 121°20'5 4.9
2016-Jun-17 12:33N 31°31' E 121°24'10 9.7
2016-Jun-17 11:32N 31°24' E 121°33'2311.0
2016-Jun-17 09:28N 31°09' E 121°53'10 0.2
2016-Jun-15 09:20N 31°17' E 121°45'911.3
2016-Jun-15 08:33N 31°22' E 121°36'10 9.7
2016-Jun-15 07:33N 31°28' E 121°27'10 9.7
2016-Jun-15 06:33N 31°34' E 121°19'26 1.2
2016-Jun-14 09:26N 31°51' E 120°56'12 0.6
2016-Jun-13 11:10N 31°44' E 121°07'610.6
2016-Jun-13 10:33N 31°40' E 121°13'1010.3
2016-Jun-13 09:33N 31°32' E 121°21'1110.5
2016-Jun-13 08:32N 31°25' E 121°31'1010.4
2016-Jun-13 07:33N 31°20' E 121°41'1410.0
2016-Jun-13 06:07N 31°09' E 121°53'  

Dump ship's entire track history